createdAt,value
2022-08-31T00:00:45.497Z,61.61
2022-08-31T00:11:16.159Z,61.73
2022-08-31T00:21:46.922Z,61.40
2022-08-31T00:32:16.203Z,61.81
2022-08-31T00:42:50.525Z,62.10
2022-08-31T00:53:20.050Z,62.26
2022-08-31T01:03:49.902Z,62.13
2022-08-31T01:14:19.012Z,62.36
2022-08-31T01:24:49.953Z,62.85
2022-08-31T01:35:19.258Z,62.55
2022-08-31T01:45:48.415Z,62.71
2022-08-31T01:56:20.602Z,62.35
2022-08-31T02:06:53.959Z,62.60
2022-08-31T02:17:22.995Z,62.61
2022-08-31T02:27:51.945Z,62.34
2022-08-31T02:38:23.868Z,62.18
2022-08-31T02:48:53.158Z,62.56
2022-08-31T02:59:22.353Z,62.41
2022-08-31T03:09:51.522Z,62.15
2022-08-31T03:20:23.196Z,62.70
2022-08-31T03:30:53.236Z,62.87
2022-08-31T03:41:26.497Z,63.38
2022-08-31T03:51:55.874Z,63.57
2022-08-31T04:02:25.619Z,63.30
2022-08-31T04:12:54.937Z,63.02
2022-08-31T04:23:29.689Z,62.79
2022-08-31T04:34:00.663Z,62.92
2022-08-31T04:44:29.725Z,63.17
2022-08-31T04:54:59.144Z,63.63
2022-08-31T05:05:28.468Z,63.82
2022-08-31T05:15:58.695Z,64.15
2022-08-31T05:26:30.398Z,64.31
2022-08-31T05:36:59.962Z,64.88
2022-08-31T05:47:29.093Z,64.93
2022-08-31T05:57:58.281Z,65.08
2022-08-31T06:08:27.673Z,65.08
2022-08-31T06:18:58.735Z,65.53
2022-08-31T06:29:28.440Z,65.48
2022-08-31T06:39:57.678Z,65.28
2022-08-31T06:50:26.628Z,65.53
2022-08-31T07:00:59.027Z,65.31
2022-08-31T07:11:33.035Z,64.95
2022-08-31T07:22:03.360Z,64.99
2022-08-31T07:32:32.503Z,63.33
2022-08-31T07:43:04.904Z,62.45
2022-08-31T07:53:47.922Z,62.33
2022-08-31T08:04:25.682Z,62.54
2022-08-31T08:15:00.911Z,63.34
2022-08-31T08:25:30.002Z,61.63
2022-08-31T08:36:03.498Z,60.86
2022-08-31T08:46:40.601Z,59.87
2022-08-31T08:57:14.656Z,58.58
2022-08-31T09:08:10.749Z,58.08
2022-08-31T09:18:49.968Z,59.20
2022-08-31T09:29:27.025Z,59.25
2022-08-31T09:39:57.390Z,59.07
2022-08-31T09:50:34.012Z,58.03
2022-08-31T10:01:14.616Z,56.08
2022-08-31T10:11:47.878Z,56.17
2022-08-31T10:22:26.047Z,56.59
2022-08-31T10:33:05.381Z,56.78
2022-08-31T10:43:39.341Z,56.81
2022-08-31T10:54:29.164Z,57.02
2022-08-31T11:05:10.972Z,56.49
2022-08-31T11:16:16.812Z,56.35
2022-08-31T11:26:59.099Z,56.21
2022-08-31T11:37:58.273Z,56.29
2022-08-31T11:49:06.098Z,56.34
2022-08-31T11:59:38.329Z,56.71
2022-08-31T12:10:35.544Z,55.79
2022-08-31T12:21:32.123Z,54.36
2022-08-31T12:32:19.571Z,54.56
2022-08-31T12:42:58.527Z,54.22
2022-08-31T12:54:02.839Z,54.75
2022-08-31T13:04:32.007Z,53.94
2022-08-31T13:15:02.061Z,53.21
2022-08-31T13:25:39.513Z,52.99
2022-08-31T13:36:32.380Z,52.68
2022-08-31T13:47:05.815Z,51.13
2022-08-31T13:57:36.277Z,51.80
2022-08-31T14:08:09.778Z,50.78
2022-08-31T14:18:43.565Z,50.14
2022-08-31T14:29:15.678Z,49.51
2022-08-31T14:39:47.659Z,48.58
2022-08-31T14:50:22.438Z,48.54
2022-08-31T15:00:53.932Z,49.32
2022-08-31T15:11:23.372Z,49.99
2022-08-31T15:22:02.771Z,50.71
2022-08-31T15:32:32.313Z,51.31
2022-08-31T15:43:02.771Z,51.76
2022-08-31T15:53:32.502Z,51.56
2022-08-31T16:04:02.876Z,51.71
2022-08-31T16:14:33.648Z,51.65
2022-08-31T16:25:02.848Z,51.07
2022-08-31T16:35:32.169Z,50.73
2022-08-31T16:46:18.896Z,51.13
2022-08-31T16:56:53.577Z,51.23
2022-08-31T17:07:23.744Z,51.10
2022-08-31T17:17:52.877Z,50.83
2022-08-31T17:28:25.944Z,50.84
2022-08-31T17:38:55.527Z,50.92
2022-08-31T17:49:26.363Z,51.23
2022-08-31T17:59:56.338Z,51.62
2022-08-31T18:10:26.659Z,52.05
2022-08-31T18:20:55.703Z,52.18
2022-08-31T18:31:30.959Z,52.39
2022-08-31T18:42:17.247Z,52.77
2022-08-31T18:52:48.393Z,53.32
2022-08-31T19:03:18.156Z,53.32
2022-08-31T19:13:51.243Z,53.67
2022-08-31T19:24:22.225Z,54.17
2022-08-31T19:34:51.543Z,54.24
2022-08-31T19:45:23.031Z,54.49
2022-08-31T19:55:56.718Z,54.52
2022-08-31T20:06:27.530Z,54.93
2022-08-31T20:16:59.825Z,55.52
2022-08-31T20:27:29.735Z,55.84
2022-08-31T20:37:59.203Z,56.39
2022-08-31T20:48:45.399Z,56.45
2022-08-31T20:59:14.682Z,56.37
2022-08-31T21:09:44.911Z,56.45
2022-08-31T21:20:15.704Z,56.65
2022-08-31T21:30:47.368Z,56.99
2022-08-31T21:41:16.597Z,57.05
2022-08-31T21:51:50.115Z,56.90
2022-08-31T22:02:19.216Z,57.13
2022-08-31T22:12:48.274Z,57.34
2022-08-31T22:23:17.319Z,57.59
2022-08-31T22:33:49.691Z,57.61
2022-08-31T22:44:21.748Z,57.76
2022-08-31T22:54:50.855Z,57.84
2022-08-31T23:05:21.354Z,57.65
2022-08-31T23:15:50.488Z,57.93
2022-08-31T23:26:21.366Z,57.90
2022-08-31T23:36:53.621Z,57.58
2022-08-31T23:47:26.090Z,57.91
2022-08-31T23:57:56.171Z,58.03
